createdAt,value
2023-04-12T00:00:06.424Z,5.66
2023-04-12T00:02:35.846Z,5.71
2023-04-12T00:05:04.659Z,5.70
2023-04-12T00:07:33.777Z,5.71
2023-04-12T00:10:03.303Z,5.70
2023-04-12T00:12:31.804Z,5.72
2023-04-12T00:15:01.462Z,5.72
2023-04-12T00:17:29.964Z,5.75
2023-04-12T00:19:58.713Z,5.77
2023-04-12T00:22:37.570Z,5.80
2023-04-12T00:25:06.713Z,5.79
2023-04-12T00:27:35.057Z,5.78
2023-04-12T00:30:04.631Z,5.74
2023-04-12T00:32:42.713Z,5.68
2023-04-12T00:35:11.418Z,5.71
2023-04-12T00:37:39.557Z,5.76
2023-04-12T00:40:11.369Z,5.78
2023-04-12T00:42:40.521Z,5.74
2023-04-12T00:45:09.723Z,5.66
2023-04-12T00:47:39.138Z,5.59
2023-04-12T00:50:08.474Z,5.55
2023-04-12T00:52:37.697Z,5.53
2023-04-12T00:55:07.757Z,5.52
2023-04-12T00:57:39.307Z,5.53
2023-04-12T01:00:13.721Z,5.52
2023-04-12T01:02:47.821Z,5.52
2023-04-12T01:05:22.616Z,5.44
2023-04-12T01:08:25.593Z,5.44
2023-04-12T01:11:14.483Z,5.41
2023-04-12T01:14:32.164Z,5.38
2023-04-12T01:17:07.211Z,5.35
2023-04-12T01:20:17.106Z,5.35
2023-04-12T01:23:16.252Z,5.35
2023-04-12T01:26:38.051Z,5.23
2023-04-12T01:29:19.485Z,5.15
2023-04-12T01:32:02.661Z,5.08
2023-04-12T01:34:34.814Z,5.06
2023-04-12T01:37:05.075Z,5.06
2023-04-12T01:39:35.023Z,5.07
2023-04-12T01:42:03.567Z,5.09
2023-04-12T01:44:32.006Z,5.13
2023-04-12T01:47:00.563Z,5.13
2023-04-12T01:49:37.460Z,5.13
2023-04-12T01:52:14.494Z,5.17
2023-04-12T01:54:47.967Z,5.22
2023-04-12T01:57:17.370Z,5.24
2023-04-12T01:59:49.496Z,5.26
2023-04-12T02:02:21.089Z,5.32
2023-04-12T02:04:49.695Z,5.33
2023-04-12T02:07:20.596Z,5.34
2023-04-12T02:09:49.107Z,5.36
2023-04-12T02:12:17.578Z,5.40
2023-04-12T02:14:46.119Z,5.43
2023-04-12T02:17:14.711Z,5.45
2023-04-12T02:19:43.201Z,5.40
2023-04-12T02:22:11.762Z,5.42
2023-04-12T02:24:40.831Z,5.39
2023-04-12T02:27:09.350Z,5.42
2023-04-12T02:29:37.812Z,5.42
2023-04-12T02:32:06.395Z,5.43
2023-04-12T02:34:36.676Z,5.44
2023-04-12T02:37:05.511Z,5.44
2023-04-12T02:39:34.556Z,5.47
2023-04-12T02:42:03.033Z,5.48
2023-04-12T02:44:31.785Z,5.51
2023-04-12T02:47:00.827Z,5.52
2023-04-12T02:49:29.441Z,5.56
2023-04-12T02:51:58.260Z,5.62
2023-04-12T02:54:27.419Z,5.64
2023-04-12T02:56:55.908Z,5.64
2023-04-12T02:59:25.382Z,5.60
2023-04-12T03:01:54.058Z,5.60
2023-04-12T03:04:22.992Z,5.42
2023-04-12T03:06:53.915Z,5.39
2023-04-12T03:09:22.396Z,5.27
2023-04-12T03:11:50.940Z,5.20
2023-04-12T03:14:19.368Z,5.18
2023-04-12T03:16:51.707Z,5.16
2023-04-12T03:19:20.436Z,5.16
2023-04-12T03:21:48.961Z,5.14
2023-04-12T03:24:17.469Z,5.04
2023-04-12T03:26:45.938Z,4.98
2023-04-12T03:29:14.436Z,4.93
2023-04-12T03:31:42.970Z,4.75
2023-04-12T03:34:11.626Z,4.75
2023-04-12T03:36:41.597Z,4.73
2023-04-12T03:39:10.072Z,4.70
2023-04-12T03:41:40.869Z,4.69
2023-04-12T03:44:09.349Z,4.69
2023-04-12T03:46:40.917Z,4.71
2023-04-12T03:49:09.491Z,4.73
2023-04-12T03:51:42.846Z,4.73
2023-04-12T03:54:13.031Z,4.73
2023-04-12T03:56:42.473Z,4.73
2023-04-12T03:59:15.881Z,4.78
2023-04-12T04:01:44.693Z,4.74
2023-04-12T04:04:13.310Z,4.81
2023-04-12T04:06:42.045Z,4.81
2023-04-12T04:09:10.530Z,4.79
2023-04-12T04:11:38.979Z,4.80
2023-04-12T04:14:07.930Z,4.82
2023-04-12T04:16:36.504Z,4.89
2023-04-12T04:19:04.990Z,4.92
2023-04-12T04:21:33.687Z,4.99
2023-04-12T04:24:02.499Z,5.05
2023-04-12T04:26:33.669Z,5.07
2023-04-12T04:29:04.200Z,5.16
2023-04-12T04:31:36.541Z,5.17
2023-04-12T04:34:09.508Z,5.24
2023-04-12T04:36:39.399Z,5.29
2023-04-12T04:39:07.882Z,5.37
2023-04-12T04:41:40.441Z,5.41
2023-04-12T04:44:10.427Z,5.47
2023-04-12T04:46:41.084Z,5.58
2023-04-12T04:49:09.764Z,5.59
2023-04-12T04:51:38.345Z,5.64
2023-04-12T04:54:07.246Z,5.68
2023-04-12T04:56:35.867Z,5.73
2023-04-12T04:59:06.900Z,5.82
2023-04-12T05:01:36.561Z,5.78
2023-04-12T05:04:05.615Z,5.82
2023-04-12T05:06:34.208Z,5.82
2023-04-12T05:09:02.794Z,5.86
2023-04-12T05:11:31.271Z,5.84
2023-04-12T05:13:59.508Z,5.87
2023-04-12T05:16:28.042Z,5.88
2023-04-12T05:18:56.987Z,5.87
2023-04-12T05:21:26.412Z,5.93
2023-04-12T05:23:54.858Z,5.97
2023-04-12T05:26:24.212Z,6.05
2023-04-12T05:28:52.703Z,6.11
2023-04-12T05:31:21.269Z,6.18
2023-04-12T05:33:50.050Z,6.29
2023-04-12T05:36:18.605Z,6.36
2023-04-12T05:38:47.095Z,6.45
2023-04-12T05:41:15.571Z,6.56
2023-04-12T05:43:44.026Z,6.69
2023-04-12T05:46:12.946Z,6.84
2023-04-12T05:48:41.475Z,6.94
2023-04-12T05:51:09.999Z,7.05
2023-04-12T05:53:41.842Z,7.11
2023-04-12T05:56:10.405Z,7.23
2023-04-12T05:58:38.915Z,7.25
2023-04-12T06:01:07.644Z,7.30
2023-04-12T06:03:36.353Z,7.36
2023-04-12T06:06:06.459Z,7.43
2023-04-12T06:08:36.547Z,7.53
2023-04-12T06:11:08.229Z,7.68
2023-04-12T06:13:37.856Z,7.88
2023-04-12T06:16:07.194Z,8.01
2023-04-12T06:18:36.707Z,8.24
2023-04-12T06:21:05.528Z,8.46
2023-04-12T06:23:34.039Z,8.75
2023-04-12T06:26:02.139Z,9.03
2023-04-12T06:28:30.728Z,9.34
2023-04-12T06:30:59.205Z,9.69
2023-04-12T06:33:27.717Z,9.99
2023-04-12T06:35:56.158Z,10.37
2023-04-12T06:38:24.715Z,10.75
2023-04-12T06:40:53.194Z,10.92
2023-04-12T06:43:22.864Z,11.18
2023-04-12T06:45:51.493Z,11.24
2023-04-12T06:48:20.015Z,11.43
2023-04-12T06:50:48.533Z,11.73
2023-04-12T06:53:16.751Z,11.89
2023-04-12T06:55:44.781Z,11.93
2023-04-12T06:58:12.977Z,11.81
2023-04-12T07:00:41.553Z,11.84
2023-04-12T07:03:10.876Z,12.00
2023-04-12T07:05:40.326Z,11.96
2023-04-12T07:08:09.938Z,11.91
2023-04-12T07:10:38.731Z,11.94
2023-04-12T07:13:08.358Z,11.77
2023-04-12T07:15:37.042Z,11.72
2023-04-12T07:18:05.563Z,11.62
2023-04-12T07:20:33.687Z,11.47
2023-04-12T07:23:02.228Z,11.43
2023-04-12T07:25:30.402Z,11.38
2023-04-12T07:27:58.938Z,11.25
2023-04-12T07:30:27.897Z,11.26
2023-04-12T07:33:05.275Z,11.14
2023-04-12T07:35:41.226Z,11.13
2023-04-12T07:38:09.821Z,11.01
2023-04-12T07:40:38.027Z,11.10
2023-04-12T07:43:06.150Z,11.11
2023-04-12T07:45:34.710Z,11.18
2023-04-12T07:48:03.715Z,11.15
2023-04-12T07:50:32.254Z,11.27
2023-04-12T07:53:23.861Z,11.33
2023-04-12T07:55:52.493Z,11.28
2023-04-12T07:58:22.927Z,11.43
2023-04-12T08:00:52.242Z,11.50
2023-04-12T08:03:20.744Z,11.60
2023-04-12T08:05:53.489Z,11.60
2023-04-12T08:08:22.422Z,11.73
2023-04-12T08:10:51.836Z,11.77
2023-04-12T08:13:20.998Z,11.83
2023-04-12T08:15:49.626Z,11.91
2023-04-12T08:18:18.409Z,12.00
2023-04-12T08:20:47.204Z,12.05
2023-04-12T08:23:15.951Z,12.09
2023-04-12T08:25:44.466Z,12.22
2023-04-12T08:28:12.950Z,12.33
2023-04-12T08:30:41.497Z,12.40
2023-04-12T08:33:09.965Z,12.52
2023-04-12T08:35:39.952Z,12.64
2023-04-12T08:38:08.151Z,12.75
2023-04-12T08:40:37.165Z,12.90
2023-04-12T08:43:11.726Z,13.14
2023-04-12T08:45:40.149Z,13.27
2023-04-12T08:48:08.460Z,13.19
2023-04-12T08:50:37.084Z,13.35
2023-04-12T08:53:05.711Z,13.42
2023-04-12T08:55:34.182Z,13.45
2023-04-12T08:58:07.399Z,13.51
2023-04-12T09:00:35.981Z,13.57
2023-04-12T09:03:04.650Z,13.71
2023-04-12T09:05:33.164Z,13.77
2023-04-12T09:08:01.792Z,13.79
2023-04-12T09:10:36.989Z,13.87
2023-04-12T09:13:06.636Z,14.02
2023-04-12T09:15:38.086Z,14.20
2023-04-12T09:18:15.797Z,14.17
2023-04-12T09:20:45.656Z,14.20
2023-04-12T09:23:24.227Z,14.36
2023-04-12T09:25:53.716Z,14.43
2023-04-12T09:28:28.231Z,14.50
2023-04-12T09:30:57.953Z,14.39
2023-04-12T09:33:40.493Z,14.43
2023-04-12T09:36:13.608Z,14.46
2023-04-12T09:38:43.995Z,14.42
2023-04-12T09:41:26.755Z,14.34
2023-04-12T09:43:56.122Z,14.33
2023-04-12T09:46:24.990Z,14.25
2023-04-12T09:48:56.460Z,14.19
2023-04-12T09:51:33.894Z,14.20
2023-04-12T09:54:04.799Z,14.14
2023-04-12T09:56:40.044Z,14.15
2023-04-12T09:59:09.266Z,14.16
2023-04-12T10:01:41.514Z,14.19
2023-04-12T10:04:10.838Z,14.15
2023-04-12T10:06:41.453Z,14.22
2023-04-12T10:09:09.839Z,14.25
2023-04-12T10:11:40.590Z,14.34
2023-04-12T10:14:09.472Z,14.40
2023-04-12T10:16:40.658Z,14.31
2023-04-12T10:19:09.700Z,14.43
2023-04-12T10:21:38.278Z,14.60
2023-04-12T10:24:08.230Z,14.55
2023-04-12T10:26:37.054Z,14.39
2023-04-12T10:29:36.309Z,14.43
2023-04-12T10:32:21.127Z,14.39
2023-04-12T10:34:59.252Z,14.25
2023-04-12T10:37:59.341Z,14.43
2023-04-12T10:40:28.352Z,14.43
2023-04-12T10:43:24.234Z,14.47
2023-04-12T10:45:52.805Z,14.45
2023-04-12T10:48:39.110Z,14.49
2023-04-12T10:51:16.254Z,14.60
2023-04-12T10:53:46.780Z,14.57
2023-04-12T10:56:33.297Z,14.55
2023-04-12T10:59:16.306Z,14.59
2023-04-12T11:02:12.934Z,14.58
2023-04-12T11:05:05.564Z,14.63
2023-04-12T11:07:45.358Z,14.69
2023-04-12T11:10:21.591Z,14.59
2023-04-12T11:12:55.424Z,14.65
2023-04-12T11:15:30.392Z,14.66
2023-04-12T11:18:01.021Z,14.60
2023-04-12T11:20:29.682Z,14.60
2023-04-12T11:22:58.568Z,14.71
2023-04-12T11:25:27.630Z,14.80
2023-04-12T11:27:56.455Z,14.92
2023-04-12T11:30:26.485Z,15.07
2023-04-12T11:32:55.069Z,15.01
2023-04-12T11:35:27.573Z,14.95
2023-04-12T11:37:58.949Z,14.96
2023-04-12T11:40:28.227Z,14.87
2023-04-12T11:42:57.899Z,14.87
2023-04-12T11:45:26.747Z,14.79
2023-04-12T11:47:58.070Z,14.73
2023-04-12T11:50:32.441Z,14.81
2023-04-12T11:53:15.958Z,14.80
2023-04-12T11:55:52.344Z,14.71
2023-04-12T11:58:25.288Z,14.77
2023-04-12T12:00:53.859Z,14.63
2023-04-12T12:03:22.655Z,14.62
2023-04-12T12:05:51.592Z,14.60
2023-04-12T12:08:20.894Z,14.57
2023-04-12T12:11:06.461Z,14.52
2023-04-12T12:13:51.158Z,14.42
2023-04-12T12:16:20.203Z,14.37
2023-04-12T12:18:52.728Z,14.19
2023-04-12T12:21:21.964Z,14.12
2023-04-12T12:23:51.381Z,13.88
2023-04-12T12:26:25.654Z,13.69
2023-04-12T12:29:00.395Z,13.63
2023-04-12T12:31:29.834Z,13.45
2023-04-12T12:34:01.097Z,13.34
2023-04-12T12:36:36.151Z,13.39
2023-04-12T12:39:15.478Z,13.18
2023-04-12T12:41:43.983Z,13.04
2023-04-12T12:44:12.777Z,12.91
2023-04-12T12:46:53.566Z,12.91
2023-04-12T12:49:24.084Z,12.86
2023-04-12T12:51:52.671Z,12.79
2023-04-12T12:54:38.662Z,12.59
2023-04-12T12:57:08.586Z,12.34
2023-04-12T12:59:37.197Z,12.17
2023-04-12T13:02:07.446Z,12.04
2023-04-12T13:04:36.380Z,11.97
2023-04-12T13:07:04.993Z,11.94
2023-04-12T13:09:33.933Z,11.83
2023-04-12T13:12:02.326Z,11.80
2023-04-12T13:14:30.665Z,11.76
2023-04-12T13:16:59.391Z,11.79
2023-04-12T13:19:27.908Z,11.77
2023-04-12T13:21:56.917Z,11.73
2023-04-12T13:24:25.354Z,11.64
2023-04-12T13:26:53.511Z,11.47
2023-04-12T13:29:22.434Z,11.47
2023-04-12T13:31:50.970Z,11.49
2023-04-12T13:34:19.140Z,11.55
2023-04-12T13:36:47.669Z,11.55
2023-04-12T13:39:16.074Z,11.48
2023-04-12T13:41:44.258Z,11.47
2023-04-12T13:44:12.823Z,11.38
2023-04-12T13:46:41.972Z,11.29
2023-04-12T13:49:10.143Z,11.20
2023-04-12T13:51:38.297Z,11.16
2023-04-12T13:54:07.025Z,11.09
2023-04-12T13:56:35.566Z,10.94
2023-04-12T13:59:03.931Z,10.86
2023-04-12T14:01:32.926Z,10.85
2023-04-12T14:04:01.710Z,10.83
2023-04-12T14:06:30.203Z,10.83
2023-04-12T14:08:59.246Z,10.84
2023-04-12T14:11:29.481Z,10.74
2023-04-12T14:13:58.409Z,10.71
2023-04-12T14:16:26.983Z,10.58
2023-04-12T14:18:55.245Z,10.57
2023-04-12T14:21:28.386Z,10.56
2023-04-12T14:23:57.108Z,10.57
2023-04-12T14:26:26.243Z,10.53
2023-04-12T14:28:54.714Z,10.51
2023-04-12T14:31:23.206Z,10.51
2023-04-12T14:33:51.301Z,10.53
2023-04-12T14:36:19.854Z,10.54
2023-04-12T14:38:48.454Z,10.54
2023-04-12T14:41:17.125Z,10.69
2023-04-12T14:43:45.936Z,10.75
2023-04-12T14:46:14.539Z,10.77
2023-04-12T14:48:42.916Z,10.80
2023-04-12T14:51:11.459Z,10.76
2023-04-12T14:53:39.990Z,10.81
2023-04-12T14:56:30.219Z,10.72
2023-04-12T14:59:00.009Z,10.70
2023-04-12T15:01:28.764Z,10.60
2023-04-12T15:03:57.232Z,10.60
2023-04-12T15:06:27.340Z,10.54
2023-04-12T15:08:57.207Z,10.61
2023-04-12T15:11:27.057Z,10.62
2023-04-12T15:13:56.240Z,10.61
2023-04-12T15:16:24.922Z,10.70
2023-04-12T15:18:53.058Z,10.78
2023-04-12T15:21:21.689Z,10.89
2023-04-12T15:23:50.509Z,10.96
2023-04-12T15:26:19.009Z,10.92
2023-04-12T15:28:47.533Z,10.97
2023-04-12T15:31:16.158Z,11.00
2023-04-12T15:33:44.250Z,11.05
2023-04-12T15:36:13.272Z,10.99
2023-04-12T15:38:44.829Z,11.01
2023-04-12T15:41:13.298Z,10.98
2023-04-12T15:43:43.084Z,10.89
2023-04-12T15:46:12.845Z,10.87
2023-04-12T15:48:41.664Z,11.01
2023-04-12T15:51:10.173Z,11.03
2023-04-12T15:53:38.274Z,10.99
2023-04-12T15:56:07.130Z,10.94
2023-04-12T15:58:35.629Z,10.96
2023-04-12T16:01:05.132Z,11.09
2023-04-12T16:03:33.968Z,11.09
2023-04-12T16:06:03.089Z,10.99
2023-04-12T16:08:31.905Z,10.99
2023-04-12T16:11:00.045Z,10.95
2023-04-12T16:13:28.269Z,10.96
2023-04-12T16:15:56.804Z,11.00
2023-04-12T16:18:25.300Z,11.06
2023-04-12T16:20:54.132Z,11.06
2023-04-12T16:23:23.652Z,11.22
2023-04-12T16:25:52.191Z,11.24
2023-04-12T16:28:22.331Z,11.24
2023-04-12T16:30:51.763Z,11.28
2023-04-12T16:33:20.092Z,11.26
2023-04-12T16:35:48.255Z,11.31
2023-04-12T16:38:17.906Z,11.31
2023-04-12T16:40:46.502Z,11.32
2023-04-12T16:43:14.629Z,11.29
2023-04-12T16:45:45.693Z,11.28
2023-04-12T16:48:14.757Z,11.33
2023-04-12T16:50:47.377Z,11.34
2023-04-12T16:53:17.235Z,11.28
2023-04-12T16:55:47.741Z,11.27
2023-04-12T16:58:16.769Z,11.22
2023-04-12T17:00:45.401Z,11.28
2023-04-12T17:03:14.236Z,11.29
2023-04-12T17:05:42.949Z,11.25
2023-04-12T17:08:11.442Z,11.26
2023-04-12T17:10:40.174Z,11.25
2023-04-12T17:13:08.310Z,11.23
2023-04-12T17:15:37.245Z,11.22
2023-04-12T17:18:09.700Z,11.21
2023-04-12T17:20:39.162Z,11.20
2023-04-12T17:23:09.997Z,11.20
2023-04-12T17:25:38.675Z,11.21
2023-04-12T17:28:08.624Z,11.23
2023-04-12T17:30:37.305Z,11.20
2023-04-12T17:33:07.423Z,11.22
2023-04-12T17:35:36.590Z,11.21
2023-04-12T17:38:04.994Z,11.18
2023-04-12T17:40:33.559Z,11.16
2023-04-12T17:43:03.154Z,11.14
2023-04-12T17:45:31.825Z,11.13
2023-04-12T17:48:00.805Z,11.14
2023-04-12T17:50:29.447Z,11.11
2023-04-12T17:52:59.715Z,11.13
2023-04-12T17:55:28.049Z,11.14
2023-04-12T17:57:56.550Z,11.16
2023-04-12T18:00:25.382Z,11.16
2023-04-12T18:02:54.085Z,11.16
2023-04-12T18:05:22.914Z,11.15
2023-04-12T18:07:51.635Z,11.16
2023-04-12T18:10:21.540Z,11.15
2023-04-12T18:12:50.543Z,11.17
2023-04-12T18:15:19.184Z,11.22
2023-04-12T18:17:47.371Z,11.16
2023-04-12T18:20:16.669Z,11.20
2023-04-12T18:22:46.003Z,11.22
2023-04-12T18:25:14.762Z,11.22
2023-04-12T18:27:43.294Z,11.21
2023-04-12T18:30:11.976Z,11.24
2023-04-12T18:32:40.474Z,11.24
2023-04-12T18:35:09.831Z,11.24
2023-04-12T18:37:38.381Z,11.26
2023-04-12T18:40:08.326Z,11.26
2023-04-12T18:42:37.004Z,11.27
2023-04-12T18:45:06.136Z,11.26
2023-04-12T18:47:34.717Z,11.27
2023-04-12T18:50:03.274Z,11.31
2023-04-12T18:52:31.724Z,11.30
2023-04-12T18:54:59.915Z,11.28
2023-04-12T18:57:29.086Z,11.27
2023-04-12T18:59:57.820Z,11.25
2023-04-12T19:02:45.232Z,11.26
2023-04-12T19:05:14.919Z,11.28
2023-04-12T19:07:43.534Z,11.23
2023-04-12T19:10:12.817Z,11.21
2023-04-12T19:12:41.140Z,11.14
2023-04-12T19:15:10.608Z,11.09
2023-04-12T19:17:39.581Z,11.06
2023-04-12T19:20:10.771Z,10.98
2023-04-12T19:22:39.309Z,10.94
2023-04-12T19:25:08.563Z,10.88
2023-04-12T19:27:37.759Z,10.82
2023-04-12T19:30:07.215Z,10.76
2023-04-12T19:32:35.859Z,10.73
2023-04-12T19:35:06.156Z,10.71
2023-04-12T19:37:34.818Z,10.68
2023-04-12T19:40:03.946Z,10.73
2023-04-12T19:42:32.444Z,10.72
2023-04-12T19:45:01.615Z,10.72
2023-04-12T19:47:30.303Z,10.71
2023-04-12T19:49:59.511Z,10.73
2023-04-12T19:52:28.477Z,10.71
2023-04-12T19:54:57.445Z,10.71
2023-04-12T19:57:27.660Z,10.66
2023-04-12T19:59:56.746Z,10.65
2023-04-12T20:02:25.644Z,10.61
2023-04-12T20:04:54.478Z,10.57
2023-04-12T20:07:22.588Z,10.50
2023-04-12T20:09:50.806Z,10.46
2023-04-12T20:12:19.671Z,10.43
2023-04-12T20:14:48.276Z,10.41
2023-04-12T20:17:17.262Z,10.40
2023-04-12T20:19:45.748Z,10.42
2023-04-12T20:22:14.211Z,10.44
2023-04-12T20:24:42.728Z,10.45
2023-04-12T20:27:12.906Z,10.47
2023-04-12T20:29:41.973Z,10.48
2023-04-12T20:32:12.410Z,10.46
2023-04-12T20:34:47.057Z,10.44
2023-04-12T20:37:15.798Z,10.44
2023-04-12T20:39:44.691Z,10.44
2023-04-12T20:42:16.080Z,10.44
2023-04-12T20:44:45.022Z,10.45
2023-04-12T20:47:13.252Z,10.46
2023-04-12T20:49:42.474Z,10.44
2023-04-12T20:52:11.038Z,10.46
2023-04-12T20:54:39.464Z,10.47
2023-04-12T20:57:07.868Z,10.50
2023-04-12T20:59:36.506Z,10.51
2023-04-12T21:02:05.088Z,10.54
2023-04-12T21:04:36.297Z,10.57
2023-04-12T21:07:05.043Z,10.59
2023-04-12T21:09:34.045Z,10.61
2023-04-12T21:12:05.134Z,10.63
2023-04-12T21:14:35.259Z,10.61
2023-04-12T21:17:04.960Z,10.57
2023-04-12T21:19:38.874Z,10.54
2023-04-12T21:22:08.442Z,10.48
2023-04-12T21:24:38.387Z,10.43
2023-04-12T21:27:10.290Z,10.40
2023-04-12T21:29:41.485Z,10.39
2023-04-12T21:32:10.965Z,10.36
2023-04-12T21:34:40.100Z,10.38
2023-04-12T21:37:09.147Z,10.35
2023-04-12T21:39:39.062Z,10.30
2023-04-12T21:42:07.545Z,10.25
2023-04-12T21:44:36.211Z,10.20
2023-04-12T21:47:04.360Z,10.15
2023-04-12T21:49:34.222Z,10.11
2023-04-12T21:52:02.691Z,10.04
2023-04-12T21:54:33.308Z,9.93
2023-04-12T21:57:02.160Z,9.86
2023-04-12T21:59:30.700Z,9.79
2023-04-12T22:01:59.385Z,9.74
2023-04-12T22:04:27.561Z,9.70
2023-04-12T22:06:58.159Z,9.67
2023-04-12T22:09:27.219Z,9.63
2023-04-12T22:11:56.512Z,9.70
2023-04-12T22:14:25.012Z,9.78
2023-04-12T22:16:53.572Z,9.85
2023-04-12T22:19:22.080Z,9.88
2023-04-12T22:21:50.530Z,9.95
2023-04-12T22:24:19.135Z,9.98
2023-04-12T22:26:47.604Z,9.90
2023-04-12T22:29:17.518Z,9.93
2023-04-12T22:31:47.122Z,9.93
2023-04-12T22:34:15.609Z,9.87
2023-04-12T22:36:45.149Z,9.84
2023-04-12T22:39:15.389Z,9.78
2023-04-12T22:41:49.669Z,9.71
2023-04-12T22:44:18.489Z,9.67
2023-04-12T22:46:48.446Z,9.64
2023-04-12T22:49:20.090Z,9.59
2023-04-12T22:51:48.609Z,9.54
2023-04-12T22:54:17.542Z,9.46
2023-04-12T22:56:46.298Z,9.41
2023-04-12T22:59:16.875Z,9.35
2023-04-12T23:01:47.145Z,9.27
2023-04-12T23:04:17.100Z,9.21
2023-04-12T23:06:46.317Z,9.15
2023-04-12T23:09:15.791Z,9.12
2023-04-12T23:11:44.277Z,9.03
2023-04-12T23:14:13.007Z,9.00
2023-04-12T23:16:44.242Z,8.93
2023-04-12T23:19:16.623Z,8.88
2023-04-12T23:21:45.279Z,8.79
2023-04-12T23:24:15.648Z,8.76
2023-04-12T23:26:45.448Z,8.73
2023-04-12T23:29:14.275Z,8.66
2023-04-12T23:31:43.106Z,8.67
2023-04-12T23:34:11.645Z,8.63
2023-04-12T23:36:40.206Z,8.59
2023-04-12T23:39:09.506Z,8.57
2023-04-12T23:41:40.742Z,8.57
2023-04-12T23:44:09.494Z,8.53
2023-04-12T23:46:38.819Z,8.50
2023-04-12T23:49:07.040Z,8.47
2023-04-12T23:51:35.467Z,8.43
2023-04-12T23:54:03.710Z,8.40
2023-04-12T23:56:32.146Z,8.37
2023-04-12T23:59:00.584Z,8.37
